createdAt,value
2019-02-08T00:00:46.255Z,32.17
2019-02-08T00:03:17.693Z,27.80
2019-02-08T00:05:49.039Z,23.33
2019-02-08T00:08:20.867Z,23.23
2019-02-08T00:10:53.897Z,26.38
2019-02-08T00:13:25.519Z,20.97
2019-02-08T00:15:57.443Z,28.67
2019-02-08T00:18:32.867Z,26.20
2019-02-08T00:21:11.483Z,25.75
2019-02-08T00:23:42.697Z,29.00
2019-02-08T00:26:18.630Z,25.70
2019-02-08T00:28:50.444Z,25.73
2019-02-08T00:31:21.961Z,27.50
2019-02-08T00:33:54.253Z,31.00
2019-02-08T00:36:25.628Z,26.97
2019-02-08T00:38:57.377Z,29.17
2019-02-08T00:41:29.148Z,26.10
2019-02-08T00:44:02.127Z,26.53
2019-02-08T00:46:33.474Z,34.53
2019-02-08T00:49:05.240Z,29.23
2019-02-08T00:51:37.161Z,28.40
2019-02-08T00:54:08.507Z,25.97
2019-02-08T00:56:39.818Z,26.40
2019-02-08T00:59:11.540Z,31.20
2019-02-08T01:01:42.814Z,26.20
2019-02-08T01:04:14.175Z,28.30
2019-02-08T01:06:45.479Z,28.00
2019-02-08T01:09:17.104Z,25.67
2019-02-08T01:11:48.379Z,24.10
2019-02-08T01:14:19.716Z,24.43
2019-02-08T01:16:51.286Z,24.23
2019-02-08T01:19:22.672Z,24.07
2019-02-08T01:21:54.033Z,25.60
2019-02-08T01:24:25.738Z,19.77
2019-02-08T01:26:57.041Z,19.87
2019-02-08T01:29:29.365Z,19.92
2019-02-08T01:32:00.725Z,20.07
2019-02-08T01:34:32.045Z,21.83
2019-02-08T01:37:03.406Z,23.00
2019-02-08T01:39:34.777Z,16.90
2019-02-08T01:42:06.079Z,22.97
2019-02-08T01:44:37.446Z,16.57
2019-02-08T01:47:08.684Z,16.73
2019-02-08T01:49:40.391Z,18.50
2019-02-08T01:52:12.052Z,15.60
2019-02-08T01:54:43.367Z,19.30
2019-02-08T01:57:14.652Z,14.60
2019-02-08T01:59:45.991Z,29.47
2019-02-08T02:02:18.208Z,19.80
2019-02-08T02:04:49.488Z,15.30
2019-02-08T02:07:20.796Z,13.17
2019-02-08T02:09:52.957Z,18.33
2019-02-08T02:12:24.512Z,16.80
2019-02-08T02:14:55.841Z,13.40
2019-02-08T02:17:28.029Z,19.00
2019-02-08T02:19:59.507Z,18.05
2019-02-08T02:22:30.933Z,19.03
2019-02-08T02:25:02.550Z,14.67
2019-02-08T02:27:34.654Z,18.40
2019-02-08T02:30:10.786Z,18.60
2019-02-08T02:32:42.150Z,14.20
2019-02-08T02:35:14.691Z,16.80
2019-02-08T02:37:46.027Z,15.93
2019-02-08T02:40:17.720Z,9.73
2019-02-08T02:42:49.024Z,12.27
2019-02-08T02:45:28.689Z,12.07
2019-02-08T02:48:00.163Z,14.67
2019-02-08T02:50:31.822Z,11.17
2019-02-08T02:53:03.200Z,14.50
2019-02-08T02:55:35.331Z,15.00
2019-02-08T02:58:08.099Z,14.20
2019-02-08T03:00:48.425Z,12.77
2019-02-08T03:03:20.028Z,14.77
2019-02-08T03:05:51.297Z,14.03
2019-02-08T03:08:22.698Z,12.47
2019-02-08T03:10:54.030Z,17.93
2019-02-08T03:13:25.357Z,18.77
2019-02-08T03:15:56.727Z,13.97
2019-02-08T03:18:34.804Z,15.80
2019-02-08T03:21:06.592Z,18.80
2019-02-08T03:23:37.995Z,16.10
2019-02-08T03:26:09.405Z,15.00
2019-02-08T03:28:41.024Z,17.67
2019-02-08T03:31:12.469Z,15.33
2019-02-08T03:33:43.793Z,19.00
2019-02-08T03:36:15.081Z,13.53
2019-02-08T03:38:46.784Z,12.58
2019-02-08T03:41:18.378Z,18.07
2019-02-08T03:43:50.059Z,11.97
2019-02-08T03:46:21.422Z,17.73
2019-02-08T03:48:52.728Z,18.93
2019-02-08T03:51:24.506Z,19.73
2019-02-08T03:53:56.941Z,18.70
2019-02-08T03:56:28.335Z,20.63
2019-02-08T03:58:59.808Z,19.53
2019-02-08T04:01:32.302Z,18.62
2019-02-08T04:04:21.938Z,15.80
2019-02-08T04:06:53.325Z,18.77
2019-02-08T04:09:25.692Z,18.63
2019-02-08T04:11:57.832Z,20.17
2019-02-08T04:14:29.350Z,21.77
2019-02-08T04:17:01.226Z,14.63
2019-02-08T04:19:33.333Z,20.50
2019-02-08T04:22:04.935Z,19.03
2019-02-08T04:24:36.401Z,17.80
2019-02-08T04:27:07.975Z,19.60
2019-02-08T04:29:39.434Z,18.50
2019-02-08T04:32:10.927Z,14.65
2019-02-08T04:34:42.843Z,14.47
2019-02-08T04:37:14.980Z,13.87
2019-02-08T04:39:46.371Z,14.30
2019-02-08T04:42:18.005Z,14.40
2019-02-08T04:44:49.684Z,18.53
2019-02-08T04:47:20.926Z,15.40
2019-02-08T04:49:53.515Z,17.65
2019-02-08T04:52:25.315Z,13.13
2019-02-08T04:54:56.677Z,19.30
2019-02-08T04:57:28.063Z,12.03
2019-02-08T04:59:59.424Z,15.13
2019-02-08T05:02:31.356Z,13.00
2019-02-08T05:05:02.970Z,12.40
2019-02-08T05:07:34.438Z,15.83
2019-02-08T05:10:07.116Z,18.40
2019-02-08T05:12:38.461Z,8.97
2019-02-08T05:15:10.668Z,8.67
2019-02-08T05:24:07.748Z,16.12
2019-02-08T05:26:39.399Z,10.80
2019-02-08T05:29:10.770Z,10.23
2019-02-08T05:31:42.149Z,10.47
2019-02-08T05:34:13.836Z,12.17
2019-02-08T05:36:45.173Z,15.38
2019-02-08T05:39:16.502Z,13.50
2019-02-08T05:41:47.825Z,15.00
2019-02-08T05:44:19.112Z,11.23
2019-02-08T05:46:50.517Z,10.10
2019-02-08T05:49:24.456Z,12.93
2019-02-08T05:51:55.777Z,12.98
2019-02-08T05:54:27.491Z,14.50
2019-02-08T05:56:58.852Z,11.80
2019-02-08T05:59:30.439Z,12.73
2019-02-08T06:02:01.787Z,16.50
2019-02-08T06:04:33.220Z,15.90
2019-02-08T06:07:04.688Z,14.97
2019-02-08T06:09:36.365Z,14.70
2019-02-08T06:12:08.343Z,15.83
2019-02-08T06:14:39.940Z,13.80
2019-02-08T06:17:14.845Z,13.30
2019-02-08T06:19:46.173Z,15.93
2019-02-08T06:22:17.886Z,11.87
2019-02-08T06:24:49.190Z,16.97
2019-02-08T06:27:23.597Z,11.23
2019-02-08T06:29:55.960Z,14.97
2019-02-08T06:32:27.692Z,13.43
2019-02-08T06:34:59.325Z,17.77
2019-02-08T06:37:30.911Z,13.67
2019-02-08T06:40:02.635Z,13.48
2019-02-08T06:42:34.259Z,12.53
2019-02-08T06:45:13.830Z,9.67
2019-02-08T06:47:45.707Z,9.03
2019-02-08T06:50:19.303Z,8.60
2019-02-08T06:52:54.759Z,18.10
2019-02-08T06:55:26.692Z,13.65
2019-02-08T06:58:20.655Z,12.10
2019-02-08T07:01:24.529Z,9.17
2019-02-08T07:07:18.957Z,13.70
2019-02-08T07:10:08.101Z,10.83
2019-02-08T07:12:59.234Z,17.37
2019-02-08T07:15:59.724Z,13.23
2019-02-08T07:18:42.406Z,13.07
2019-02-08T07:21:31.407Z,12.50
2019-02-08T07:24:11.875Z,10.93
2019-02-08T07:27:11.296Z,9.63
2019-02-08T07:30:17.543Z,10.18
2019-02-08T07:33:10.580Z,8.78
2019-02-08T07:36:04.605Z,8.87
2019-02-08T07:38:49.512Z,14.30
2019-02-08T07:41:44.177Z,13.35
2019-02-08T07:44:47.965Z,11.07
2019-02-08T07:47:37.376Z,7.67
2019-02-08T07:50:39.487Z,8.90
2019-02-08T07:53:33.869Z,9.80
2019-02-08T07:56:12.828Z,6.20
2019-02-08T07:58:53.370Z,8.77
2019-02-08T08:01:42.182Z,11.67
2019-02-08T08:04:44.858Z,9.93
2019-02-08T08:07:48.322Z,6.93
2019-02-08T08:10:38.548Z,8.80
2019-02-08T08:13:27.170Z,9.03
2019-02-08T08:16:26.748Z,10.30
2019-02-08T08:19:38.212Z,11.70
2019-02-08T08:22:26.917Z,9.57
2019-02-08T08:25:34.002Z,14.37
2019-02-08T08:28:24.482Z,6.50
2019-02-08T08:31:13.121Z,11.00
2019-02-08T08:33:58.210Z,10.17
2019-02-08T08:37:33.043Z,11.77
2019-02-08T08:40:57.765Z,8.13
2019-02-08T08:44:15.883Z,6.23
2019-02-08T08:47:56.018Z,10.27
2019-02-08T08:51:32.643Z,10.00
2019-02-08T08:55:12.506Z,16.47
2019-02-08T08:58:52.584Z,8.93
2019-02-08T09:02:13.930Z,9.70
2019-02-08T09:05:34.217Z,10.03
2019-02-08T09:08:53.096Z,10.13
2019-02-08T09:12:37.466Z,7.50
2019-02-08T09:16:11.434Z,9.97
2019-02-08T09:19:45.474Z,15.23
2019-02-08T09:23:07.307Z,10.10
2019-02-08T09:26:20.087Z,8.03
2019-02-08T09:30:07.395Z,8.47
2019-02-08T09:33:43.424Z,8.50
2019-02-08T09:36:53.984Z,6.27
2019-02-08T09:40:39.079Z,11.57
2019-02-08T09:44:04.641Z,9.90
2019-02-08T09:47:30.199Z,8.93
2019-02-08T09:51:13.366Z,8.03
2019-02-08T09:54:58.342Z,10.60
2019-02-08T09:58:16.212Z,8.93
2019-02-08T10:02:17.097Z,12.67
2019-02-08T10:06:00.403Z,11.63
2019-02-08T10:09:31.061Z,8.50
2019-02-08T10:13:14.455Z,7.83
2019-02-08T10:17:04.833Z,15.13
2019-02-08T10:20:35.237Z,7.87
2019-02-08T10:24:33.474Z,18.60
2019-02-08T10:27:55.053Z,13.13
2019-02-08T10:31:34.703Z,6.63
2019-02-08T10:35:12.577Z,8.37
2019-02-08T10:38:47.154Z,7.07
2019-02-08T10:42:36.379Z,8.00
2019-02-08T10:46:32.947Z,8.16
2019-02-08T10:50:01.403Z,5.70
2019-02-08T10:53:30.252Z,9.28
2019-02-08T10:57:21.152Z,11.90
2019-02-08T11:00:54.272Z,7.57
2019-02-08T11:04:46.512Z,11.53
2019-02-08T11:08:34.910Z,9.17
2019-02-08T11:12:08.417Z,14.17
2019-02-08T11:16:13.713Z,9.30
2019-02-08T11:19:25.551Z,9.40
2019-02-08T11:21:59.616Z,8.53
2019-02-08T11:24:33.590Z,7.63
2019-02-08T11:27:06.955Z,11.67
2019-02-08T11:29:42.583Z,11.07
2019-02-08T11:32:14.485Z,11.27
2019-02-08T11:34:45.863Z,10.82
2019-02-08T11:37:17.858Z,9.18
2019-02-08T11:39:49.334Z,10.13
2019-02-08T11:42:20.660Z,6.63
2019-02-08T11:44:51.960Z,9.83
2019-02-08T11:47:23.212Z,8.67
2019-02-08T11:49:54.949Z,15.43
2019-02-08T11:52:26.476Z,11.68
2019-02-08T11:54:58.173Z,15.60
2019-02-08T11:57:30.814Z,8.20
2019-02-08T12:00:02.430Z,9.80
2019-02-08T12:02:40.415Z,10.20
2019-02-08T12:05:08.958Z,11.80
2019-02-08T12:07:40.763Z,11.37
2019-02-08T12:10:12.784Z,10.23
2019-02-08T12:12:44.556Z,11.57
2019-02-08T12:15:17.476Z,11.33
2019-02-08T12:17:48.730Z,10.88
2019-02-08T12:20:20.156Z,7.97
2019-02-08T12:22:51.772Z,8.20
2019-02-08T12:25:23.077Z,7.97
2019-02-08T12:27:54.397Z,13.70
2019-02-08T12:30:31.144Z,11.43
2019-02-08T12:33:02.756Z,7.13
2019-02-08T12:35:34.162Z,11.47
2019-02-08T12:38:06.315Z,11.40
2019-02-08T12:40:37.620Z,9.93
2019-02-08T12:43:09.294Z,10.57
2019-02-08T12:45:40.619Z,8.33
2019-02-08T12:48:12.221Z,9.37
2019-02-08T12:50:43.919Z,9.47
2019-02-08T12:53:15.519Z,11.27
2019-02-08T12:55:46.892Z,10.30
2019-02-08T12:58:18.196Z,8.90
2019-02-08T13:00:49.464Z,8.23
2019-02-08T13:03:21.857Z,8.20
2019-02-08T13:05:53.529Z,10.05
2019-02-08T13:08:25.426Z,7.13
2019-02-08T13:10:57.385Z,9.70
2019-02-08T13:13:28.785Z,6.93
2019-02-08T13:16:00.058Z,11.80
2019-02-08T13:18:31.358Z,15.50
2019-02-08T13:21:02.952Z,6.17
2019-02-08T13:23:34.279Z,5.23
2019-02-08T13:26:07.796Z,7.57
2019-02-08T13:28:39.324Z,7.43
2019-02-08T13:31:10.648Z,7.20
2019-02-08T13:33:41.907Z,9.93
2019-02-08T13:36:16.473Z,8.07
2019-02-08T13:38:48.128Z,8.20
2019-02-08T13:41:19.477Z,5.37
2019-02-08T13:43:51.466Z,8.98
2019-02-08T13:46:22.757Z,8.63
2019-02-08T13:48:54.295Z,9.37
2019-02-08T13:51:25.714Z,9.23
2019-02-08T13:53:57.034Z,7.38
2019-02-08T13:56:28.775Z,10.37
2019-02-08T13:59:02.570Z,7.80
2019-02-08T14:01:34.641Z,5.00
2019-02-08T14:04:07.161Z,8.67
2019-02-08T14:06:42.802Z,8.33
2019-02-08T14:09:15.364Z,5.60
2019-02-08T14:11:47.451Z,8.40
2019-02-08T14:14:19.202Z,6.60
2019-02-08T14:16:50.820Z,11.17
2019-02-08T14:19:22.454Z,9.97
2019-02-08T14:21:53.765Z,8.67
2019-02-08T14:24:29.032Z,11.50
2019-02-08T14:27:08.179Z,6.27
2019-02-08T14:29:33.921Z,7.33
2019-02-08T14:32:10.877Z,8.43
2019-02-08T14:34:43.688Z,9.50
2019-02-08T14:37:15.702Z,10.67
2019-02-08T14:39:48.046Z,6.97
2019-02-08T14:42:22.622Z,10.60
2019-02-08T14:44:54.205Z,7.77
2019-02-08T14:47:25.976Z,8.90
2019-02-08T14:49:57.871Z,7.60
2019-02-08T14:52:29.624Z,6.23
2019-02-08T14:55:01.553Z,6.73
2019-02-08T14:57:33.265Z,7.63
2019-02-08T15:00:06.977Z,10.60
2019-02-08T15:02:39.786Z,9.63
2019-02-08T15:05:12.858Z,8.63
2019-02-08T15:07:44.738Z,7.53
2019-02-08T15:10:25.887Z,6.83
2019-02-08T15:12:57.592Z,8.23
2019-02-08T15:15:29.253Z,11.40
2019-02-08T15:18:01.029Z,6.50
2019-02-08T15:20:34.086Z,6.37
2019-02-08T15:23:05.882Z,7.13
2019-02-08T15:25:37.564Z,10.45
2019-02-08T15:28:09.044Z,5.50
2019-02-08T15:30:40.378Z,6.03
2019-02-08T15:33:11.654Z,6.43
2019-02-08T15:35:43.430Z,5.40
2019-02-08T15:38:15.913Z,5.83
2019-02-08T15:40:50.820Z,4.27
2019-02-08T15:43:24.449Z,8.33
2019-02-08T15:45:59.500Z,7.23
2019-02-08T15:48:31.121Z,6.93
2019-02-08T15:51:02.457Z,3.80
2019-02-08T15:53:33.784Z,5.03
2019-02-08T15:56:17.433Z,6.40
2019-02-08T15:58:48.731Z,6.97
2019-02-08T16:01:20.673Z,7.37
2019-02-08T16:03:51.946Z,5.27
2019-02-08T16:06:23.582Z,8.73
2019-02-08T16:08:54.918Z,6.60
2019-02-08T16:11:26.598Z,6.53
2019-02-08T16:13:58.064Z,4.67
2019-02-08T16:16:29.453Z,7.53
2019-02-08T16:19:01.069Z,3.87
2019-02-08T16:21:32.495Z,10.17
2019-02-08T16:24:04.000Z,7.60
2019-02-08T16:26:35.612Z,7.03
2019-02-08T16:29:07.609Z,7.70
2019-02-08T16:31:39.355Z,5.13
2019-02-08T16:34:10.943Z,5.62
2019-02-08T16:36:42.438Z,4.50
2019-02-08T16:39:14.074Z,4.80
2019-02-08T16:41:45.514Z,7.73
2019-02-08T16:44:17.053Z,11.93
2019-02-08T16:46:49.418Z,6.17
2019-02-08T16:49:21.177Z,6.73
2019-02-08T16:51:52.608Z,6.33
2019-02-08T16:54:23.948Z,7.27
2019-02-08T16:56:55.767Z,9.97
2019-02-08T16:59:27.115Z,6.40
2019-02-08T17:01:58.767Z,4.27
2019-02-08T17:04:30.084Z,9.08
2019-02-08T17:07:04.526Z,5.40
2019-02-08T17:09:36.027Z,6.87
2019-02-08T17:12:07.826Z,5.80
2019-02-08T17:14:39.164Z,4.20
2019-02-08T17:17:10.448Z,4.97
2019-02-08T17:19:41.837Z,5.47
2019-02-08T17:22:13.174Z,6.33
2019-02-08T17:24:44.482Z,5.73
2019-02-08T17:27:15.788Z,4.83
2019-02-08T17:29:47.118Z,4.60
2019-02-08T17:32:18.445Z,3.40
2019-02-08T17:34:49.910Z,5.90
2019-02-08T17:37:21.566Z,6.40
2019-02-08T17:39:52.891Z,5.00
2019-02-08T17:42:24.589Z,6.00
2019-02-08T17:44:56.324Z,6.47
2019-02-08T17:47:27.765Z,4.90
2019-02-08T17:49:59.324Z,5.70
2019-02-08T17:52:30.709Z,5.77
2019-02-08T17:55:01.997Z,5.03
2019-02-08T17:57:33.993Z,4.10
2019-02-08T18:00:07.061Z,4.90
2019-02-08T18:02:38.490Z,5.30
2019-02-08T18:05:10.855Z,5.67
2019-02-08T18:07:42.383Z,3.67
2019-02-08T18:10:20.477Z,5.10
2019-02-08T18:12:54.434Z,6.20
2019-02-08T18:15:26.004Z,4.03
2019-02-08T18:17:57.737Z,5.13
2019-02-08T18:20:32.375Z,7.57
2019-02-08T18:23:04.068Z,4.07
2019-02-08T18:25:35.788Z,6.50
2019-02-08T18:28:10.947Z,6.53
2019-02-08T18:30:41.453Z,6.80
2019-02-08T18:33:13.064Z,4.95
2019-02-08T18:35:44.363Z,4.90
2019-02-08T18:38:15.845Z,5.43
2019-02-08T18:40:48.620Z,6.27
2019-02-08T18:43:20.551Z,4.83
2019-02-08T18:45:51.942Z,6.63
2019-02-08T18:48:23.587Z,7.10
2019-02-08T18:50:55.598Z,6.90
2019-02-08T18:53:27.401Z,4.57
2019-02-08T18:55:59.027Z,4.08
2019-02-08T18:58:30.567Z,8.63
2019-02-08T19:01:04.151Z,7.97
2019-02-08T19:03:38.417Z,5.37
2019-02-08T19:06:11.403Z,4.67
2019-02-08T19:08:43.101Z,6.77
2019-02-08T19:11:14.518Z,3.00
2019-02-08T19:13:46.081Z,5.20
2019-02-08T19:16:17.453Z,8.25
2019-02-08T19:18:49.058Z,4.50
2019-02-08T19:21:22.094Z,3.17
2019-02-08T19:23:53.454Z,4.37
2019-02-08T19:26:25.476Z,4.43
2019-02-08T19:28:57.110Z,4.53
2019-02-08T19:31:28.596Z,8.40
2019-02-08T19:34:00.348Z,3.90
2019-02-08T19:36:33.055Z,7.17
2019-02-08T19:39:06.791Z,5.28
2019-02-08T19:41:40.372Z,7.03
2019-02-08T19:44:12.686Z,4.13
2019-02-08T19:46:44.093Z,6.87
2019-02-08T19:49:15.462Z,9.70
2019-02-08T19:51:48.218Z,4.30
2019-02-08T19:54:20.228Z,7.57
2019-02-08T19:56:51.500Z,5.55
2019-02-08T19:59:22.843Z,6.27
2019-02-08T20:01:54.207Z,5.80
2019-02-08T20:04:25.639Z,5.80
2019-02-08T20:06:57.631Z,4.33
2019-02-08T20:09:29.955Z,8.33
2019-02-08T20:12:02.253Z,2.92
2019-02-08T20:14:33.673Z,6.12
2019-02-08T20:17:05.492Z,3.73
2019-02-08T20:19:37.143Z,7.57
2019-02-08T20:22:09.161Z,5.83
2019-02-08T20:24:40.864Z,4.83
2019-02-08T20:27:12.589Z,3.00
2019-02-08T20:29:43.837Z,8.03
2019-02-08T20:32:15.496Z,4.20
2019-02-08T20:34:49.181Z,5.20
2019-02-08T20:37:20.550Z,8.47
2019-02-08T20:39:51.925Z,3.37
2019-02-08T20:42:23.858Z,8.77
2019-02-08T20:44:55.574Z,3.07
2019-02-08T20:47:27.938Z,4.30
2019-02-08T20:49:59.332Z,5.67
2019-02-08T20:52:31.009Z,8.00
2019-02-08T20:55:02.340Z,5.13
2019-02-08T20:57:34.134Z,4.63
2019-02-08T21:00:12.695Z,4.62
2019-02-08T21:02:44.532Z,6.60
2019-02-08T21:05:16.584Z,6.47
2019-02-08T21:07:48.134Z,11.00
2019-02-08T21:10:20.184Z,5.53
2019-02-08T21:12:51.632Z,9.75
2019-02-08T21:15:23.385Z,9.20
2019-02-08T21:17:55.334Z,7.93
2019-02-08T21:20:27.358Z,7.50
2019-02-08T21:22:58.954Z,5.33
2019-02-08T21:25:31.818Z,4.35
2019-02-08T21:28:03.839Z,6.27
2019-02-08T21:30:35.199Z,3.83
2019-02-08T21:33:09.351Z,5.20
2019-02-08T21:35:43.936Z,3.37
2019-02-08T21:38:15.753Z,8.33
2019-02-08T21:40:47.499Z,5.63
2019-02-08T21:43:18.906Z,7.37
2019-02-08T21:45:51.877Z,4.17
2019-02-08T21:48:25.681Z,6.75
2019-02-08T21:50:58.569Z,5.87
2019-02-08T21:53:30.027Z,3.15
2019-02-08T21:56:01.325Z,5.15
2019-02-08T21:58:32.741Z,6.07
2019-02-08T22:01:04.178Z,5.53
2019-02-08T22:03:35.551Z,4.33
2019-02-08T22:06:11.561Z,9.95
2019-02-08T22:08:43.224Z,7.57
2019-02-08T22:11:14.887Z,6.07
2019-02-08T22:13:46.195Z,8.50
2019-02-08T22:16:17.495Z,4.80
2019-02-08T22:18:48.836Z,3.43
2019-02-08T22:21:20.165Z,7.50
2019-02-08T22:23:51.724Z,4.15
2019-02-08T22:26:23.089Z,5.00
2019-02-08T22:28:54.930Z,6.00
2019-02-08T22:31:26.651Z,4.80
2019-02-08T22:33:58.005Z,3.23
2019-02-08T22:36:29.325Z,6.50
2019-02-08T22:39:00.634Z,8.28
2019-02-08T22:41:31.962Z,6.40
2019-02-08T22:44:03.241Z,1.57
2019-02-08T22:46:38.217Z,4.17
2019-02-08T22:49:10.007Z,7.57
2019-02-08T22:51:42.061Z,2.55
2019-02-08T22:54:13.844Z,3.37
2019-02-08T22:56:45.224Z,5.70
2019-02-08T22:59:21.925Z,4.07
2019-02-08T23:01:53.577Z,7.07
2019-02-08T23:04:25.092Z,6.28
2019-02-08T23:06:56.480Z,5.30
2019-02-08T23:09:28.590Z,4.28
2019-02-08T23:12:00.314Z,7.13
2019-02-08T23:14:32.513Z,7.97
2019-02-08T23:17:04.043Z,3.20
2019-02-08T23:19:35.353Z,9.65
2019-02-08T23:22:06.823Z,6.53
2019-02-08T23:24:38.123Z,5.43
2019-02-08T23:27:09.438Z,3.13
2019-02-08T23:29:40.719Z,4.57
2019-02-08T23:32:12.094Z,2.73
2019-02-08T23:34:43.419Z,5.63
2019-02-08T23:37:14.799Z,6.63
2019-02-08T23:39:46.100Z,5.25
2019-02-08T23:42:17.507Z,4.23
2019-02-08T23:44:49.147Z,8.10
2019-02-08T23:47:20.820Z,3.43
2019-02-08T23:49:52.483Z,5.00
2019-02-08T23:52:23.756Z,5.13
2019-02-08T23:58:17.025Z,5.63
